MET'MAP v2.0
soon released !

Expected late october,
this new version will be
more efficient, smarter,
and hosted on a brand new
server x3 powerfull...
...and still free !


Not compatible ?
Try the mobile version !

LOG IN : | Subscribe | Disclaimer | Who is Orbifly ? |
ICAO code :

TAF - LGIO Ioannina - 30 Mar 2020 10:03 UTC - Data Source NOAA   


- Airport Elevation : 1558 ft
- IATA code : IOA
- No reported NOTAMs.


LGIO - Ioannina

Latest METAR recorded : 2015/08/11 07:50 LGIO 110750Z 22002KT 9999 FEW040 25/17 Q1015
TAF TAF LGIO
Valid from the 30 at 06:00 until the 30 at 15:00 UTC


300500Z 3006/3015 VRB03KT 9999 FEW025
TEMPO 3006/3009 4000 BR FEW008
PROB40 3006/3007 0500 FG BKN002
BECMG 3009/3011 FEW025 BKN080
PROB30
TEMPO 3012/3015 6000 SHRA FEW018TCU SCT025 BKN080

Source NOAA


MET'MAP, your aeronautical weather chart ! - Copyright ORBIFLY December 2007

Programming & Development : Alexandra Zaïnal
Co-Developer : Marc-Olivier Méhu
Technical & hardware support : Manuel Goepfert
Concept & Financing : Baudouin d'Aumeries